sensor_id;sensor_type;location;lat;lon;timestamp;P1;durP1;ratioP1;P2;durP2;ratioP2
84682;SDS011;74905;44.124;18.116;2024-02-28T00:00:46;176.43;;;67.50;;
84682;SDS011;74905;44.124;18.116;2024-02-28T00:03:11;193.00;;;71.15;;
84682;SDS011;74905;44.124;18.116;2024-02-28T00:05:37;155.13;;;59.00;;
84682;SDS011;74905;44.124;18.116;2024-02-28T00:08:04;151.93;;;57.60;;
84682;SDS011;74905;44.124;18.116;2024-02-28T00:10:29;178.85;;;68.93;;
84682;SDS011;74905;44.124;18.116;2024-02-28T00:12:57;213.13;;;79.88;;
84682;SDS011;74905;44.124;18.116;2024-02-28T00:15:23;178.55;;;65.97;;
84682;SDS011;74905;44.124;18.116;2024-02-28T00:17:51;203.13;;;77.68;;
84682;SDS011;74905;44.124;18.116;2024-02-28T00:20:18;185.65;;;72.57;;
84682;SDS011;74905;44.124;18.116;2024-02-28T00:22:44;213.45;;;77.50;;
84682;SDS011;74905;44.124;18.116;2024-02-28T00:25:09;204.98;;;78.60;;
84682;SDS011;74905;44.124;18.116;2024-02-28T00:27:36;196.57;;;71.00;;
84682;SDS011;74905;44.124;18.116;2024-02-28T00:30:02;192.13;;;71.82;;
84682;SDS011;74905;44.124;18.116;2024-02-28T00:32:31;166.43;;;65.20;;
84682;SDS011;74905;44.124;18.116;2024-02-28T00:34:57;179.75;;;66.78;;
84682;SDS011;74905;44.124;18.116;2024-02-28T00:37:23;160.52;;;61.60;;
84682;SDS011;74905;44.124;18.116;2024-02-28T00:39:49;152.43;;;58.38;;
84682;SDS011;74905;44.124;18.116;2024-02-28T00:42:14;142.32;;;54.53;;
84682;SDS011;74905;44.124;18.116;2024-02-28T00:44:40;142.93;;;54.80;;
84682;SDS011;74905;44.124;18.116;2024-02-28T00:47:08;140.70;;;53.53;;
84682;SDS011;74905;44.124;18.116;2024-02-28T00:49:34;150.95;;;55.30;;
84682;SDS011;74905;44.124;18.116;2024-02-28T00:52:00;136.50;;;52.47;;
84682;SDS011;74905;44.124;18.116;2024-02-28T00:54:28;148.68;;;56.00;;
84682;SDS011;74905;44.124;18.116;2024-02-28T00:56:54;138.02;;;53.53;;
84682;SDS011;74905;44.124;18.116;2024-02-28T00:59:19;140.30;;;53.92;;
84682;SDS011;74905;44.124;18.116;2024-02-28T01:01:45;141.20;;;56.90;;
84682;SDS011;74905;44.124;18.116;2024-02-28T01:04:10;147.27;;;56.00;;
84682;SDS011;74905;44.124;18.116;2024-02-28T01:06:36;144.48;;;57.45;;
84682;SDS011;74905;44.124;18.116;2024-02-28T01:09:03;145.25;;;59.65;;
84682;SDS011;74905;44.124;18.116;2024-02-28T01:11:30;155.70;;;60.70;;
84682;SDS011;74905;44.124;18.116;2024-02-28T01:13:55;145.93;;;57.35;;
84682;SDS011;74905;44.124;18.116;2024-02-28T01:16:21;131.90;;;53.40;;
84682;SDS011;74905;44.124;18.116;2024-02-28T01:18:46;130.48;;;52.60;;
84682;SDS011;74905;44.124;18.116;2024-02-28T01:21:12;140.43;;;56.50;;
84682;SDS011;74905;44.124;18.116;2024-02-28T01:23:38;128.48;;;51.38;;
84682;SDS011;74905;44.124;18.116;2024-02-28T01:26:03;120.38;;;45.40;;
84682;SDS011;74905;44.124;18.116;2024-02-28T01:28:30;114.05;;;46.13;;
84682;SDS011;74905;44.124;18.116;2024-02-28T01:30:55;99.25;;;40.75;;
84682;SDS011;74905;44.124;18.116;2024-02-28T01:33:21;80.95;;;36.55;;
84682;SDS011;74905;44.124;18.116;2024-02-28T01:35:47;91.13;;;39.58;;
84682;SDS011;74905;44.124;18.116;2024-02-28T01:38:13;106.68;;;40.33;;
84682;SDS011;74905;44.124;18.116;2024-02-28T01:40:38;93.45;;;40.25;;
84682;SDS011;74905;44.124;18.116;2024-02-28T01:43:06;98.70;;;42.15;;
84682;SDS011;74905;44.124;18.116;2024-02-28T01:45:32;97.63;;;41.63;;
84682;SDS011;74905;44.124;18.116;2024-02-28T01:47:58;97.10;;;40.60;;
84682;SDS011;74905;44.124;18.116;2024-02-28T01:50:24;88.22;;;37.55;;
84682;SDS011;74905;44.124;18.116;2024-02-28T01:52:50;100.30;;;39.88;;
84682;SDS011;74905;44.124;18.116;2024-02-28T01:55:16;98.32;;;39.00;;
84682;SDS011;74905;44.124;18.116;2024-02-28T01:57:42;94.85;;;37.80;;
84682;SDS011;74905;44.124;18.116;2024-02-28T02:00:08;87.80;;;37.58;;
84682;SDS011;74905;44.124;18.116;2024-02-28T02:02:34;84.18;;;37.58;;
84682;SDS011;74905;44.124;18.116;2024-02-28T02:04:59;87.60;;;39.47;;
84682;SDS011;74905;44.124;18.116;2024-02-28T02:07:25;101.05;;;43.30;;
84682;SDS011;74905;44.124;18.116;2024-02-28T02:09:51;122.35;;;51.38;;
84682;SDS011;74905;44.124;18.116;2024-02-28T02:12:18;116.57;;;46.03;;
84682;SDS011;74905;44.124;18.116;2024-02-28T02:14:47;116.88;;;48.85;;
84682;SDS011;74905;44.124;18.116;2024-02-28T02:17:13;126.70;;;48.75;;
84682;SDS011;74905;44.124;18.116;2024-02-28T02:19:39;114.72;;;49.70;;
84682;SDS011;74905;44.124;18.116;2024-02-28T02:22:05;103.45;;;44.15;;
84682;SDS011;74905;44.124;18.116;2024-02-28T02:24:33;119.68;;;49.05;;
84682;SDS011;74905;44.124;18.116;2024-02-28T02:26:59;119.90;;;48.47;;
84682;SDS011;74905;44.124;18.116;2024-02-28T02:29:26;116.28;;;47.10;;
84682;SDS011;74905;44.124;18.116;2024-02-28T02:31:53;104.20;;;40.38;;
84682;SDS011;74905;44.124;18.116;2024-02-28T02:34:19;96.40;;;37.78;;
84682;SDS011;74905;44.124;18.116;2024-02-28T02:36:45;123.47;;;50.72;;
84682;SDS011;74905;44.124;18.116;2024-02-28T02:39:10;134.32;;;53.17;;
84682;SDS011;74905;44.124;18.116;2024-02-28T02:41:36;121.70;;;48.85;;
84682;SDS011;74905;44.124;18.116;2024-02-28T02:44:02;117.32;;;48.13;;
84682;SDS011;74905;44.124;18.116;2024-02-28T02:46:27;107.00;;;45.53;;
84682;SDS011;74905;44.124;18.116;2024-02-28T02:48:53;104.82;;;42.90;;
84682;SDS011;74905;44.124;18.116;2024-02-28T02:51:19;113.55;;;45.35;;
84682;SDS011;74905;44.124;18.116;2024-02-28T02:53:45;109.68;;;46.33;;
84682;SDS011;74905;44.124;18.116;2024-02-28T02:56:10;113.13;;;46.85;;
84682;SDS011;74905;44.124;18.116;2024-02-28T02:58:36;97.30;;;41.38;;
84682;SDS011;74905;44.124;18.116;2024-02-28T03:01:01;97.88;;;44.40;;
84682;SDS011;74905;44.124;18.116;2024-02-28T03:03:27;89.70;;;35.85;;
84682;SDS011;74905;44.124;18.116;2024-02-28T03:05:53;77.55;;;34.85;;
84682;SDS011;74905;44.124;18.116;2024-02-28T03:08:18;68.72;;;29.35;;
84682;SDS011;74905;44.124;18.116;2024-02-28T03:10:44;68.45;;;29.08;;
84682;SDS011;74905;44.124;18.116;2024-02-28T03:13:09;65.80;;;30.20;;
84682;SDS011;74905;44.124;18.116;2024-02-28T03:15:35;73.88;;;29.55;;
84682;SDS011;74905;44.124;18.116;2024-02-28T03:18:01;66.07;;;29.85;;
84682;SDS011;74905;44.124;18.116;2024-02-28T03:20:27;64.97;;;28.40;;
84682;SDS011;74905;44.124;18.116;2024-02-28T03:22:52;67.03;;;28.55;;
84682;SDS011;74905;44.124;18.116;2024-02-28T03:25:18;58.63;;;26.58;;
84682;SDS011;74905;44.124;18.116;2024-02-28T03:27:43;70.90;;;29.98;;
84682;SDS011;74905;44.124;18.116;2024-02-28T03:30:09;76.38;;;32.92;;
84682;SDS011;74905;44.124;18.116;2024-02-28T03:35:07;61.03;;;27.73;;
84682;SDS011;74905;44.124;18.116;2024-02-28T03:37:34;63.72;;;29.75;;
84682;SDS011;74905;44.124;18.116;2024-02-28T03:39:59;75.70;;;31.70;;
84682;SDS011;74905;44.124;18.116;2024-02-28T03:42:25;71.90;;;31.42;;
84682;SDS011;74905;44.124;18.116;2024-02-28T03:44:51;71.85;;;29.15;;
84682;SDS011;74905;44.124;18.116;2024-02-28T03:47:16;61.40;;;28.35;;
84682;SDS011;74905;44.124;18.116;2024-02-28T03:49:42;58.88;;;25.25;;
84682;SDS011;74905;44.124;18.116;2024-02-28T03:52:07;56.50;;;24.67;;
84682;SDS011;74905;44.124;18.116;2024-02-28T03:54:33;59.90;;;24.88;;
84682;SDS011;74905;44.124;18.116;2024-02-28T03:56:59;57.45;;;25.63;;
84682;SDS011;74905;44.124;18.116;2024-02-28T03:59:24;65.45;;;27.63;;
84682;SDS011;74905;44.124;18.116;2024-02-28T04:01:50;86.93;;;36.88;;
84682;SDS011;74905;44.124;18.116;2024-02-28T04:04:15;74.32;;;32.95;;
84682;SDS011;74905;44.124;18.116;2024-02-28T04:06:41;64.88;;;26.02;;
84682;SDS011;74905;44.124;18.116;2024-02-28T04:09:07;43.47;;;19.95;;
84682;SDS011;74905;44.124;18.116;2024-02-28T04:11:32;53.85;;;21.77;;
84682;SDS011;74905;44.124;18.116;2024-02-28T04:13:59;46.90;;;19.67;;
84682;SDS011;74905;44.124;18.116;2024-02-28T04:16:24;42.65;;;18.38;;
84682;SDS011;74905;44.124;18.116;2024-02-28T04:18:50;41.45;;;17.95;;
84682;SDS011;74905;44.124;18.116;2024-02-28T04:21:16;50.13;;;20.65;;
84682;SDS011;74905;44.124;18.116;2024-02-28T04:23:41;64.63;;;27.33;;
84682;SDS011;74905;44.124;18.116;2024-02-28T04:26:07;80.03;;;34.03;;
84682;SDS011;74905;44.124;18.116;2024-02-28T04:28:32;98.65;;;38.63;;
84682;SDS011;74905;44.124;18.116;2024-02-28T04:30:58;81.82;;;34.00;;
84682;SDS011;74905;44.124;18.116;2024-02-28T04:33:24;94.25;;;37.75;;
84682;SDS011;74905;44.124;18.116;2024-02-28T04:35:49;73.05;;;35.85;;
84682;SDS011;74905;44.124;18.116;2024-02-28T04:38:15;64.13;;;29.42;;
84682;SDS011;74905;44.124;18.116;2024-02-28T04:40:40;70.43;;;31.35;;
84682;SDS011;74905;44.124;18.116;2024-02-28T04:43:06;83.30;;;34.67;;
84682;SDS011;74905;44.124;18.116;2024-02-28T04:45:32;84.97;;;37.92;;
84682;SDS011;74905;44.124;18.116;2024-02-28T04:47:57;75.88;;;36.83;;
84682;SDS011;74905;44.124;18.116;2024-02-28T04:50:23;76.28;;;37.22;;
84682;SDS011;74905;44.124;18.116;2024-02-28T04:52:48;61.63;;;28.00;;
84682;SDS011;74905;44.124;18.116;2024-02-28T04:55:14;72.45;;;30.15;;
84682;SDS011;74905;44.124;18.116;2024-02-28T04:57:40;61.00;;;27.85;;
84682;SDS011;74905;44.124;18.116;2024-02-28T05:00:06;59.97;;;28.92;;
84682;SDS011;74905;44.124;18.116;2024-02-28T05:02:33;60.55;;;27.15;;
84682;SDS011;74905;44.124;18.116;2024-02-28T05:04:59;63.35;;;27.50;;
84682;SDS011;74905;44.124;18.116;2024-02-28T05:07:25;58.40;;;25.58;;
84682;SDS011;74905;44.124;18.116;2024-02-28T05:09:51;62.15;;;28.08;;
84682;SDS011;74905;44.124;18.116;2024-02-28T05:12:16;63.25;;;26.33;;
84682;SDS011;74905;44.124;18.116;2024-02-28T05:14:42;67.80;;;27.98;;
84682;SDS011;74905;44.124;18.116;2024-02-28T05:17:07;56.95;;;25.95;;
84682;SDS011;74905;44.124;18.116;2024-02-28T05:19:33;62.50;;;28.42;;
84682;SDS011;74905;44.124;18.116;2024-02-28T05:21:59;61.08;;;25.27;;
84682;SDS011;74905;44.124;18.116;2024-02-28T05:24:26;64.65;;;24.75;;
84682;SDS011;74905;44.124;18.116;2024-02-28T05:26:51;52.10;;;23.63;;
84682;SDS011;74905;44.124;18.116;2024-02-28T05:29:17;57.10;;;23.60;;
84682;SDS011;74905;44.124;18.116;2024-02-28T05:31:43;51.13;;;21.92;;
84682;SDS011;74905;44.124;18.116;2024-02-28T05:34:08;57.35;;;23.13;;
84682;SDS011;74905;44.124;18.116;2024-02-28T05:36:34;46.97;;;21.05;;
84682;SDS011;74905;44.124;18.116;2024-02-28T05:39:00;50.92;;;23.20;;
84682;SDS011;74905;44.124;18.116;2024-02-28T05:41:26;42.30;;;21.85;;
84682;SDS011;74905;44.124;18.116;2024-02-28T05:43:52;48.65;;;23.77;;
84682;SDS011;74905;44.124;18.116;2024-02-28T05:46:18;44.60;;;20.90;;
84682;SDS011;74905;44.124;18.116;2024-02-28T05:48:44;51.72;;;22.25;;
84682;SDS011;74905;44.124;18.116;2024-02-28T05:51:11;46.75;;;20.90;;
84682;SDS011;74905;44.124;18.116;2024-02-28T05:53:38;50.72;;;22.58;;
84682;SDS011;74905;44.124;18.116;2024-02-28T05:56:08;51.70;;;22.40;;
84682;SDS011;74905;44.124;18.116;2024-02-28T05:58:41;45.22;;;21.42;;
84682;SDS011;74905;44.124;18.116;2024-02-28T06:01:08;44.67;;;21.52;;
84682;SDS011;74905;44.124;18.116;2024-02-28T06:03:34;51.17;;;21.42;;
84682;SDS011;74905;44.124;18.116;2024-02-28T06:06:00;70.80;;;28.35;;
84682;SDS011;74905;44.124;18.116;2024-02-28T06:08:26;68.22;;;28.27;;
84682;SDS011;74905;44.124;18.116;2024-02-28T06:10:51;56.53;;;28.67;;
84682;SDS011;74905;44.124;18.116;2024-02-28T06:13:18;68.22;;;30.02;;
84682;SDS011;74905;44.124;18.116;2024-02-28T06:15:43;65.18;;;25.38;;
84682;SDS011;74905;44.124;18.116;2024-02-28T06:18:10;47.38;;;22.35;;
84682;SDS011;74905;44.124;18.116;2024-02-28T06:20:36;53.80;;;25.65;;
84682;SDS011;74905;44.124;18.116;2024-02-28T06:23:02;72.00;;;28.33;;
84682;SDS011;74905;44.124;18.116;2024-02-28T06:25:28;77.93;;;32.38;;
84682;SDS011;74905;44.124;18.116;2024-02-28T06:27:53;70.70;;;29.25;;
84682;SDS011;74905;44.124;18.116;2024-02-28T06:30:19;93.63;;;36.50;;
84682;SDS011;74905;44.124;18.116;2024-02-28T06:32:45;80.55;;;35.03;;
84682;SDS011;74905;44.124;18.116;2024-02-28T06:35:11;81.10;;;31.02;;
84682;SDS011;74905;44.124;18.116;2024-02-28T06:40:03;57.70;;;24.80;;
84682;SDS011;74905;44.124;18.116;2024-02-28T06:42:35;56.65;;;24.75;;
84682;SDS011;74905;44.124;18.116;2024-02-28T06:45:02;63.58;;;25.63;;
84682;SDS011;74905;44.124;18.116;2024-02-28T06:47:29;49.13;;;21.88;;
84682;SDS011;74905;44.124;18.116;2024-02-28T06:49:55;50.50;;;21.10;;
84682;SDS011;74905;44.124;18.116;2024-02-28T06:52:21;42.38;;;20.38;;
84682;SDS011;74905;44.124;18.116;2024-02-28T06:54:46;41.20;;;18.60;;
84682;SDS011;74905;44.124;18.116;2024-02-28T06:57:12;47.88;;;21.55;;
84682;SDS011;74905;44.124;18.116;2024-02-28T06:59:38;54.47;;;23.65;;
84682;SDS011;74905;44.124;18.116;2024-02-28T07:02:03;48.90;;;21.50;;
84682;SDS011;74905;44.124;18.116;2024-02-28T07:04:29;56.58;;;22.55;;
84682;SDS011;74905;44.124;18.116;2024-02-28T07:06:55;47.15;;;21.02;;
84682;SDS011;74905;44.124;18.116;2024-02-28T07:09:21;49.80;;;23.23;;
84682;SDS011;74905;44.124;18.116;2024-02-28T07:11:46;43.08;;;20.77;;
84682;SDS011;74905;44.124;18.116;2024-02-28T07:14:12;45.88;;;21.23;;
84682;SDS011;74905;44.124;18.116;2024-02-28T07:16:37;42.50;;;20.75;;
84682;SDS011;74905;44.124;18.116;2024-02-28T07:19:04;50.65;;;21.17;;
84682;SDS011;74905;44.124;18.116;2024-02-28T07:21:30;43.97;;;20.65;;
84682;SDS011;74905;44.124;18.116;2024-02-28T07:23:57;41.35;;;21.27;;
84682;SDS011;74905;44.124;18.116;2024-02-28T07:26:23;47.28;;;20.70;;
84682;SDS011;74905;44.124;18.116;2024-02-28T07:28:48;56.47;;;23.60;;
84682;SDS011;74905;44.124;18.116;2024-02-28T07:31:17;51.13;;;23.80;;
84682;SDS011;74905;44.124;18.116;2024-02-28T07:33:43;45.53;;;19.98;;
84682;SDS011;74905;44.124;18.116;2024-02-28T07:36:09;48.75;;;22.25;;
84682;SDS011;74905;44.124;18.116;2024-02-28T07:38:35;43.17;;;20.83;;
84682;SDS011;74905;44.124;18.116;2024-02-28T07:41:01;38.15;;;18.30;;
84682;SDS011;74905;44.124;18.116;2024-02-28T07:43:27;41.08;;;18.73;;
84682;SDS011;74905;44.124;18.116;2024-02-28T07:45:54;44.05;;;22.45;;
84682;SDS011;74905;44.124;18.116;2024-02-28T07:48:19;38.15;;;17.95;;
84682;SDS011;74905;44.124;18.116;2024-02-28T07:50:45;38.88;;;17.95;;
84682;SDS011;74905;44.124;18.116;2024-02-28T07:53:11;37.25;;;18.85;;
84682;SDS011;74905;44.124;18.116;2024-02-28T07:55:37;41.92;;;18.38;;
84682;SDS011;74905;44.124;18.116;2024-02-28T07:58:04;41.00;;;20.33;;
84682;SDS011;74905;44.124;18.116;2024-02-28T08:00:30;42.78;;;19.98;;
84682;SDS011;74905;44.124;18.116;2024-02-28T08:02:58;38.72;;;18.95;;
84682;SDS011;74905;44.124;18.116;2024-02-28T08:05:23;41.47;;;20.23;;
84682;SDS011;74905;44.124;18.116;2024-02-28T08:07:49;49.17;;;22.83;;
84682;SDS011;74905;44.124;18.116;2024-02-28T08:10:15;56.17;;;24.02;;
84682;SDS011;74905;44.124;18.116;2024-02-28T08:12:44;48.97;;;23.80;;
84682;SDS011;74905;44.124;18.116;2024-02-28T08:15:10;43.05;;;20.10;;
84682;SDS011;74905;44.124;18.116;2024-02-28T08:17:36;39.67;;;20.35;;
84682;SDS011;74905;44.124;18.116;2024-02-28T08:20:04;52.45;;;22.95;;
84682;SDS011;74905;44.124;18.116;2024-02-28T08:22:31;41.83;;;19.73;;
84682;SDS011;74905;44.124;18.116;2024-02-28T08:24:56;33.25;;;16.70;;
84682;SDS011;74905;44.124;18.116;2024-02-28T08:27:22;30.42;;;14.20;;
84682;SDS011;74905;44.124;18.116;2024-02-28T08:29:49;27.63;;;13.32;;
84682;SDS011;74905;44.124;18.116;2024-02-28T08:32:15;29.30;;;14.30;;
84682;SDS011;74905;44.124;18.116;2024-02-28T08:34:45;26.42;;;13.00;;
84682;SDS011;74905;44.124;18.116;2024-02-28T08:37:14;21.60;;;11.53;;
84682;SDS011;74905;44.124;18.116;2024-02-28T08:39:40;29.98;;;13.25;;
84682;SDS011;74905;44.124;18.116;2024-02-28T08:42:06;32.38;;;15.70;;
84682;SDS011;74905;44.124;18.116;2024-02-28T08:44:31;39.88;;;16.80;;
84682;SDS011;74905;44.124;18.116;2024-02-28T08:46:57;26.30;;;13.68;;
84682;SDS011;74905;44.124;18.116;2024-02-28T08:49:23;30.02;;;13.93;;
84682;SDS011;74905;44.124;18.116;2024-02-28T08:51:48;30.48;;;14.95;;
84682;SDS011;74905;44.124;18.116;2024-02-28T08:54:14;31.08;;;15.13;;
84682;SDS011;74905;44.124;18.116;2024-02-28T08:56:39;33.03;;;13.10;;
84682;SDS011;74905;44.124;18.116;2024-02-28T08:59:05;28.80;;;13.57;;
84682;SDS011;74905;44.124;18.116;2024-02-28T09:01:31;31.67;;;14.48;;
84682;SDS011;74905;44.124;18.116;2024-02-28T09:03:59;27.17;;;12.18;;
84682;SDS011;74905;44.124;18.116;2024-02-28T09:06:28;30.15;;;14.52;;
84682;SDS011;74905;44.124;18.116;2024-02-28T09:08:54;28.13;;;12.88;;
84682;SDS011;74905;44.124;18.116;2024-02-28T09:11:20;23.15;;;12.23;;
84682;SDS011;74905;44.124;18.116;2024-02-28T09:13:47;27.63;;;13.35;;
84682;SDS011;74905;44.124;18.116;2024-02-28T09:18:45;25.77;;;12.00;;
84682;SDS011;74905;44.124;18.116;2024-02-28T09:21:10;30.65;;;11.32;;
84682;SDS011;74905;44.124;18.116;2024-02-28T09:23:39;25.48;;;11.05;;
84682;SDS011;74905;44.124;18.116;2024-02-28T09:26:05;27.25;;;10.90;;
84682;SDS011;74905;44.124;18.116;2024-02-28T09:28:31;22.58;;;10.57;;
84682;SDS011;74905;44.124;18.116;2024-02-28T09:30:57;22.30;;;10.38;;
84682;SDS011;74905;44.124;18.116;2024-02-28T09:33:23;22.52;;;9.65;;
84682;SDS011;74905;44.124;18.116;2024-02-28T09:35:49;24.42;;;9.45;;
84682;SDS011;74905;44.124;18.116;2024-02-28T09:38:14;28.00;;;9.23;;
84682;SDS011;74905;44.124;18.116;2024-02-28T09:40:40;15.38;;;6.05;;
84682;SDS011;74905;44.124;18.116;2024-02-28T09:43:11;14.50;;;5.80;;
84682;SDS011;74905;44.124;18.116;2024-02-28T09:45:54;15.18;;;6.32;;
84682;SDS011;74905;44.124;18.116;2024-02-28T09:48:27;14.25;;;5.50;;
84682;SDS011;74905;44.124;18.116;2024-02-28T09:51:02;12.20;;;5.32;;
84682;SDS011;74905;44.124;18.116;2024-02-28T09:53:32;13.70;;;4.70;;
84682;SDS011;74905;44.124;18.116;2024-02-28T09:55:58;13.93;;;4.32;;
84682;SDS011;74905;44.124;18.116;2024-02-28T09:58:24;16.23;;;4.03;;
84682;SDS011;74905;44.124;18.116;2024-02-28T10:00:52;11.82;;;3.17;;
84682;SDS011;74905;44.124;18.116;2024-02-28T10:03:21;15.45;;;4.18;;
84682;SDS011;74905;44.124;18.116;2024-02-28T10:05:55;9.30;;;3.45;;
84682;SDS011;74905;44.124;18.116;2024-02-28T10:08:22;12.98;;;3.20;;
84682;SDS011;74905;44.124;18.116;2024-02-28T10:10:57;16.92;;;4.13;;
84682;SDS011;74905;44.124;18.116;2024-02-28T10:13:23;15.13;;;2.85;;
84682;SDS011;74905;44.124;18.116;2024-02-28T10:15:49;10.32;;;2.60;;
84682;SDS011;74905;44.124;18.116;2024-02-28T10:18:15;12.38;;;2.63;;
84682;SDS011;74905;44.124;18.116;2024-02-28T10:20:41;9.38;;;2.28;;
84682;SDS011;74905;44.124;18.116;2024-02-28T10:23:07;15.13;;;2.70;;
84682;SDS011;74905;44.124;18.116;2024-02-28T10:28:12;9.30;;;2.60;;
84682;SDS011;74905;44.124;18.116;2024-02-28T10:30:40;11.25;;;2.33;;
84682;SDS011;74905;44.124;18.116;2024-02-28T10:33:13;18.10;;;2.97;;
84682;SDS011;74905;44.124;18.116;2024-02-28T10:35:42;11.73;;;2.33;;
84682;SDS011;74905;44.124;18.116;2024-02-28T10:38:14;8.90;;;2.88;;
84682;SDS011;74905;44.124;18.116;2024-02-28T10:40:40;15.10;;;2.50;;
84682;SDS011;74905;44.124;18.116;2024-02-28T10:43:07;12.25;;;3.25;;
84682;SDS011;74905;44.124;18.116;2024-02-28T10:45:38;15.90;;;5.35;;
84682;SDS011;74905;44.124;18.116;2024-02-28T10:48:04;17.38;;;2.60;;
84682;SDS011;74905;44.124;18.116;2024-02-28T10:50:33;13.82;;;2.45;;
84682;SDS011;74905;44.124;18.116;2024-02-28T10:53:03;14.43;;;2.30;;
84682;SDS011;74905;44.124;18.116;2024-02-28T10:55:34;17.50;;;2.72;;
84682;SDS011;74905;44.124;18.116;2024-02-28T10:58:08;12.18;;;2.40;;
84682;SDS011;74905;44.124;18.116;2024-02-28T11:03:07;18.38;;;3.97;;
84682;SDS011;74905;44.124;18.116;2024-02-28T11:05:39;13.73;;;2.60;;
84682;SDS011;74905;44.124;18.116;2024-02-28T11:10:41;14.38;;;3.30;;
84682;SDS011;74905;44.124;18.116;2024-02-28T11:13:26;12.18;;;2.90;;
84682;SDS011;74905;44.124;18.116;2024-02-28T11:16:06;13.77;;;2.60;;
84682;SDS011;74905;44.124;18.116;2024-02-28T11:18:50;17.58;;;2.97;;
84682;SDS011;74905;44.124;18.116;2024-02-28T11:21:16;11.67;;;2.50;;
84682;SDS011;74905;44.124;18.116;2024-02-28T11:23:58;14.70;;;2.80;;
84682;SDS011;74905;44.124;18.116;2024-02-28T11:26:25;14.20;;;2.80;;
84682;SDS011;74905;44.124;18.116;2024-02-28T11:28:55;12.90;;;3.15;;
84682;SDS011;74905;44.124;18.116;2024-02-28T11:31:21;14.07;;;2.55;;
84682;SDS011;74905;44.124;18.116;2024-02-28T11:33:56;16.17;;;3.28;;
84682;SDS011;74905;44.124;18.116;2024-02-28T11:36:21;14.73;;;3.95;;
84682;SDS011;74905;44.124;18.116;2024-02-28T11:38:48;16.88;;;2.92;;
84682;SDS011;74905;44.124;18.116;2024-02-28T11:41:14;15.93;;;3.25;;
84682;SDS011;74905;44.124;18.116;2024-02-28T11:43:59;15.40;;;3.25;;
84682;SDS011;74905;44.124;18.116;2024-02-28T11:46:31;19.02;;;3.67;;
84682;SDS011;74905;44.124;18.116;2024-02-28T11:48:58;21.10;;;3.60;;
84682;SDS011;74905;44.124;18.116;2024-02-28T11:51:26;23.02;;;3.88;;
84682;SDS011;74905;44.124;18.116;2024-02-28T11:53:52;18.88;;;3.47;;
84682;SDS011;74905;44.124;18.116;2024-02-28T11:56:18;14.48;;;2.90;;
84682;SDS011;74905;44.124;18.116;2024-02-28T11:58:49;17.25;;;3.67;;
84682;SDS011;74905;44.124;18.116;2024-02-28T12:01:15;13.18;;;3.13;;
84682;SDS011;74905;44.124;18.116;2024-02-28T12:03:44;21.35;;;4.07;;
84682;SDS011;74905;44.124;18.116;2024-02-28T12:06:13;22.80;;;7.38;;
84682;SDS011;74905;44.124;18.116;2024-02-28T12:08:39;15.15;;;3.83;;
84682;SDS011;74905;44.124;18.116;2024-02-28T12:11:09;19.58;;;3.28;;
84682;SDS011;74905;44.124;18.116;2024-02-28T12:14:02;22.15;;;3.83;;
84682;SDS011;74905;44.124;18.116;2024-02-28T12:16:29;16.98;;;3.22;;
84682;SDS011;74905;44.124;18.116;2024-02-28T12:18:55;19.83;;;2.92;;
84682;SDS011;74905;44.124;18.116;2024-02-28T12:21:21;14.75;;;3.35;;
84682;SDS011;74905;44.124;18.116;2024-02-28T12:23:49;15.13;;;3.33;;
84682;SDS011;74905;44.124;18.116;2024-02-28T12:26:18;21.65;;;3.97;;
84682;SDS011;74905;44.124;18.116;2024-02-28T12:28:45;16.63;;;3.67;;
84682;SDS011;74905;44.124;18.116;2024-02-28T12:31:11;15.77;;;3.40;;
84682;SDS011;74905;44.124;18.116;2024-02-28T12:33:38;24.48;;;4.07;;
84682;SDS011;74905;44.124;18.116;2024-02-28T12:36:08;19.00;;;3.40;;
84682;SDS011;74905;44.124;18.116;2024-02-28T12:38:33;13.38;;;2.85;;
84682;SDS011;74905;44.124;18.116;2024-02-28T12:40:59;15.95;;;3.47;;
84682;SDS011;74905;44.124;18.116;2024-02-28T12:43:25;22.58;;;5.60;;
84682;SDS011;74905;44.124;18.116;2024-02-28T12:45:51;19.08;;;4.32;;
84682;SDS011;74905;44.124;18.116;2024-02-28T12:48:16;19.92;;;3.08;;
84682;SDS011;74905;44.124;18.116;2024-02-28T12:50:42;17.98;;;3.03;;
84682;SDS011;74905;44.124;18.116;2024-02-28T12:53:07;15.88;;;3.05;;
84682;SDS011;74905;44.124;18.116;2024-02-28T12:55:33;16.48;;;2.90;;
84682;SDS011;74905;44.124;18.116;2024-02-28T12:57:59;18.65;;;3.78;;
84682;SDS011;74905;44.124;18.116;2024-02-28T13:00:30;20.70;;;4.35;;
84682;SDS011;74905;44.124;18.116;2024-02-28T13:02:56;17.80;;;2.83;;
84682;SDS011;74905;44.124;18.116;2024-02-28T13:05:21;16.00;;;2.95;;
84682;SDS011;74905;44.124;18.116;2024-02-28T13:07:47;17.48;;;2.90;;
84682;SDS011;74905;44.124;18.116;2024-02-28T13:10:13;13.82;;;2.65;;
84682;SDS011;74905;44.124;18.116;2024-02-28T13:12:38;18.73;;;3.03;;
84682;SDS011;74905;44.124;18.116;2024-02-28T13:15:07;21.00;;;4.05;;
84682;SDS011;74905;44.124;18.116;2024-02-28T13:17:33;19.33;;;4.20;;
84682;SDS011;74905;44.124;18.116;2024-02-28T13:20:02;20.48;;;4.38;;
84682;SDS011;74905;44.124;18.116;2024-02-28T13:22:31;20.15;;;5.07;;
84682;SDS011;74905;44.124;18.116;2024-02-28T13:27:32;28.67;;;6.40;;
84682;SDS011;74905;44.124;18.116;2024-02-28T13:30:00;22.77;;;4.05;;
84682;SDS011;74905;44.124;18.116;2024-02-28T13:32:26;15.40;;;3.17;;
84682;SDS011;74905;44.124;18.116;2024-02-28T13:34:52;18.48;;;3.72;;
84682;SDS011;74905;44.124;18.116;2024-02-28T13:37:18;22.63;;;4.78;;
84682;SDS011;74905;44.124;18.116;2024-02-28T13:39:44;17.02;;;3.95;;
84682;SDS011;74905;44.124;18.116;2024-02-28T13:42:10;23.40;;;4.25;;
84682;SDS011;74905;44.124;18.116;2024-02-28T13:44:36;22.35;;;4.57;;
84682;SDS011;74905;44.124;18.116;2024-02-28T13:47:03;19.35;;;4.80;;
84682;SDS011;74905;44.124;18.116;2024-02-28T13:49:29;18.77;;;4.38;;
84682;SDS011;74905;44.124;18.116;2024-02-28T13:51:54;20.10;;;4.43;;
84682;SDS011;74905;44.124;18.116;2024-02-28T13:54:20;23.35;;;5.15;;
84682;SDS011;74905;44.124;18.116;2024-02-28T13:56:46;20.02;;;4.30;;
84682;SDS011;74905;44.124;18.116;2024-02-28T13:59:12;19.00;;;4.47;;
84682;SDS011;74905;44.124;18.116;2024-02-28T14:01:38;20.50;;;4.90;;
84682;SDS011;74905;44.124;18.116;2024-02-28T14:04:04;23.15;;;4.25;;
84682;SDS011;74905;44.124;18.116;2024-02-28T14:06:30;20.33;;;4.20;;
84682;SDS011;74905;44.124;18.116;2024-02-28T14:08:55;28.20;;;7.35;;
84682;SDS011;74905;44.124;18.116;2024-02-28T14:11:22;31.02;;;8.82;;
84682;SDS011;74905;44.124;18.116;2024-02-28T14:13:48;31.15;;;9.35;;
84682;SDS011;74905;44.124;18.116;2024-02-28T14:16:14;28.50;;;8.43;;
84682;SDS011;74905;44.124;18.116;2024-02-28T14:18:41;27.27;;;9.25;;
84682;SDS011;74905;44.124;18.116;2024-02-28T14:21:06;39.63;;;12.02;;
84682;SDS011;74905;44.124;18.116;2024-02-28T14:23:32;32.92;;;12.88;;
84682;SDS011;74905;44.124;18.116;2024-02-28T14:25:58;33.85;;;12.82;;